Beaver Islander — WT5906 — position and weather

sailwx.info

Track history (hours):
 
Tides and Currents Weather Stations Pressure Air Temp Water Temp Dewpoint Dewpoint Depression Visibility Wind Speed Wind Dir Waves Ship Positions

Beaver Islander

Owner: BEAVER ISLAND BOAT CO, CHARLEVOIX, MI. More information available from US FCC via Universal Licensing System and Coast Guard Vessel Documentation Center.

Last reported at 2017-Jul-23 23:54 UTC. Time now 2017-Jul-25 02:35 UTC.
Position N 45°45' W 085°31'.

Length 28 m; draft 3 m.

Type: Passenger vessel. MMSI: 366936060.

Date/timePositionNaut miles runAvg speedWind from/ knotsBaromVisibWave heightAir tempDewpointWater temp
2017-Jul-23 23:54N 45°45' W 085°31'2 5.5
2017-Jul-23 23:30N 45°43' W 085°29'713.0
2017-Jul-23 23:00N 45°37' W 085°25'713.2
2017-Jul-23 22:30N 45°31' W 085°22'613.0
2017-Jul-23 22:00N 45°25' W 085°19'6 4.7
2017-Jul-23 20:39N 45°19' W 085°15'1 5.3
2017-Jul-23 20:30N 45°20' W 085°16'613.0
2017-Jul-23 20:00N 45°26' W 085°20'613.0
2017-Jul-23 19:30N 45°32' W 085°23'713.0
2017-Jul-23 19:00N 45°38' W 085°26'612.8
2017-Jul-23 18:31N 45°44' W 085°29'2 3.0
2017-Jul-23 18:00N 45°45' W 085°31'2 4.7
2017-Jul-23 17:31N 45°43' W 085°29'612.9
2017-Jul-23 17:00N 45°37' W 085°25'612.9
2017-Jul-23 16:31N 45°31' W 085°22'613.0
2017-Jul-23 16:01N 45°25' W 085°19'6 4.8
2017-Jul-23 14:40N 45°19' W 085°15'1 5.0
2017-Jul-23 14:30N 45°20' W 085°16'713.1
2017-Jul-23 14:00N 45°26' W 085°20'613.0
2017-Jul-23 13:31N 45°32' W 085°24'612.8
2017-Jul-23 13:01N 45°38' W 085°26'612.9
2017-Jul-23 12:30N 45°44' W 085°29'2 1.9
2017-Jul-23 11:43N 45°45' W 085°31'0 0.0
2017-Jul-23 11:04N 45°45' W 085°31'0 0.0
2017-Jul-23 10:55N 45°45' W 085°31'0 0.0
2017-Jul-22 23:57N 45°45' W 085°31'2 5.3
2017-Jul-22 23:30N 45°43' W 085°29'713.1
2017-Jul-22 23:00N 45°37' W 085°25'713.0
2017-Jul-22 22:30N 45°31' W 085°22'713.1
2017-Jul-22 22:00N 45°25' W 085°19'6 4.6
2017-Jul-22 20:40N 45°19' W 085°15'1 3.7
2017-Jul-22 20:30N 45°19' W 085°16'713.1
2017-Jul-22 20:00N 45°26' W 085°19'713.2
2017-Jul-22 19:30N 45°32' W 085°23'713.3
2017-Jul-22 19:00N 45°38' W 085°26'712.9
2017-Jul-22 18:30N 45°44' W 085°30'1 2.5
2017-Jul-22 17:59N 45°45' W 085°31'3 5.7
2017-Jul-22 17:30N 45°43' W 085°29'713.0
2017-Jul-22 17:00N 45°37' W 085°25'612.8
2017-Jul-22 16:30N 45°31' W 085°22'613.0
2017-Jul-22 16:00N 45°25' W 085°19'611.8
2017-Jul-22 15:30N 45°19' W 085°15'0 0.0
2017-Jul-22 14:35N 45°19' W 085°15'711.5
2017-Jul-22 14:00N 45°25' W 085°19'713.1
2017-Jul-22 13:30N 45°31' W 085°22'713.2
2017-Jul-22 13:00N 45°38' W 085°26'713.0
2017-Jul-22 12:30N 45°44' W 085°29'2 3.7
2017-Jul-22 12:00N 45°45' W 085°31'0 0.0
2017-Jul-22 11:30N 45°45' W 085°31'0 0.0
2017-Jul-21 23:57N 45°45' W 085°31'2 5.3
2017-Jul-21 23:30N 45°43' W 085°29'713.2
2017-Jul-21 23:00N 45°37' W 085°25'713.1
2017-Jul-21 22:30N 45°31' W 085°22'713.1
2017-Jul-21 22:00N 45°25' W 085°19'6 4.1
2017-Jul-21 20:32N 45°19' W 085°15'0 4.5
2017-Jul-21 20:28N 45°19' W 085°16'612.7
2017-Jul-21 20:00N 45°25' W 085°19'713.4
2017-Jul-21 19:30N 45°31' W 085°21'713.4
2017-Jul-21 19:00N 45°37' W 085°25'713.2
2017-Jul-21 18:30N 45°43' W 085°29'2 4.1
2017-Jul-21 18:00N 45°45' W 085°31'3 5.3
2017-Jul-21 17:30N 45°43' W 085°28'612.9
2017-Jul-21 17:00N 45°37' W 085°25'612.8
2017-Jul-21 16:30N 45°31' W 085°22'612.9
2017-Jul-21 16:00N 45°25' W 085°19'6 4.3
2017-Jul-21 14:36N 45°19' W 085°15'0 3.2
2017-Jul-21 14:29N 45°19' W 085°16'613.0
2017-Jul-21 14:00N 45°25' W 085°19'713.2
2017-Jul-21 13:30N 45°31' W 085°23'713.2
2017-Jul-21 13:00N 45°38' W 085°26'613.0
2017-Jul-21 12:30N 45°44' W 085°29'2 3.4
2017-Jul-21 11:56N 45°45' W 085°31'0 0.0
2017-Jul-21 11:29N 45°45' W 085°31'0 0.0
2017-Jul-21 10:59N 45°45' W 085°31'0 0.0
2017-Jul-20 23:54N 45°45' W 085°31'3 6.6
2017-Jul-20 23:31N 45°43' W 085°29'713.1
2017-Jul-20 23:01N 45°37' W 085°25'712.9
2017-Jul-20 22:30N 45°31' W 085°22'612.9
2017-Jul-20 22:00N 45°25' W 085°19'6 4.2
2017-Jul-20 20:34N 45°19' W 085°15'0 2.7
2017-Jul-20 20:29N 45°19' W 085°16'613.0
2017-Jul-20 20:00N 45°25' W 085°19'713.5
2017-Jul-20 19:30N 45°31' W 085°22'713.5
2017-Jul-20 19:00N 45°38' W 085°26'713.3
2017-Jul-20 18:30N 45°44' W 085°29'2 3.2
2017-Jul-20 17:59N 45°45' W 085°31'0 0.0
2017-Jul-20 17:29N 45°45' W 085°31'0 0.0
2017-Jul-20 16:59N 45°45' W 085°31'0 0.0
2017-Jul-20 16:30N 45°45' W 085°31'  
2017-Jul-16 23:55N 45°45' W 085°31'2 5.1
2017-Jul-16 23:30N 45°43' W 085°29'613.0
2017-Jul-16 23:00N 45°37' W 085°26'713.1
2017-Jul-16 22:30N 45°31' W 085°22'713.2
2017-Jul-16 22:00N 45°25' W 085°19'6 4.4
2017-Jul-16 20:34N 45°19' W 085°15'0 2.1
2017-Jul-16 20:28N 45°19' W 085°16'612.8
2017-Jul-16 20:00N 45°25' W 085°19'713.2
2017-Jul-16 19:30N 45°31' W 085°22'713.4
2017-Jul-16 19:00N 45°37' W 085°26'713.4
2017-Jul-16 18:30N 45°43' W 085°29'2 3.8
2017-Jul-16 17:58N 45°45' W 085°31'3 5.9
2017-Jul-16 17:30N 45°43' W 085°29'713.0
2017-Jul-16 17:00N 45°37' W 085°25'713.0
2017-Jul-16 16:30N 45°31' W 085°22'713.1
2017-Jul-16 16:00N 45°25' W 085°19'611.1
2017-Jul-16 15:29N 45°19' W 085°15'0 0.0
2017-Jul-16 15:00N 45°19' W 085°15'0 0.5
2017-Jul-16 14:30N 45°19' W 085°16'612.8
2017-Jul-16 14:00N 45°25' W 085°19'713.2
2017-Jul-16 13:30N 45°31' W 085°22'713.3
2017-Jul-16 13:00N 45°37' W 085°26'713.3
2017-Jul-16 12:30N 45°44' W 085°29'2 3.5
2017-Jul-16 11:59N 45°45' W 085°31'0 0.0
2017-Jul-16 11:29N 45°45' W 085°31'0 0.0
2017-Jul-16 10:59N 45°45' W 085°31'0 0.0
2017-Jul-16 00:03N 45°45' W 085°31'0 0.0
2017-Jul-16 00:00N 45°45' W 085°31'2 4.4
2017-Jul-15 23:30N 45°43' W 085°29'713.1
2017-Jul-15 23:00N 45°37' W 085°25'713.1
2017-Jul-15 22:30N 45°31' W 085°22'713.1
2017-Jul-15 22:01N 45°25' W 085°19'612.3
2017-Jul-15 21:30N 45°19' W 085°15'0 0.0
2017-Jul-15 20:36N 45°19' W 085°15'0 2.4
2017-Jul-15 20:30N 45°19' W 085°16'612.7
2017-Jul-15 20:01N 45°25' W 085°19'713.0
2017-Jul-15 19:30N 45°31' W 085°22'613.0
2017-Jul-15 19:01N 45°37' W 085°26'713.1
2017-Jul-15 18:31N 45°43' W 085°29'2 4.2
2017-Jul-15 18:01N 45°45' W 085°31'2 4.8
2017-Jul-15 17:31N 45°43' W 085°29'713.1
2017-Jul-15 17:01N 45°37' W 085°25'713.2
2017-Jul-15 16:31N 45°31' W 085°22'713.2
2017-Jul-15 16:01N 45°25' W 085°19'611.7
2017-Jul-15 15:30N 45°19' W 085°15'0 0.0
2017-Jul-15 14:37N 45°19' W 085°15'711.4
2017-Jul-15 14:01N 45°25' W 085°19'613.0
2017-Jul-15 13:31N 45°31' W 085°22'713.0
2017-Jul-15 13:01N 45°38' W 085°26'713.1
2017-Jul-15 12:30N 45°44' W 085°29'2 3.3
2017-Jul-15 11:58N 45°45' W 085°31'0 0.0
2017-Jul-15 11:28N 45°45' W 085°31'0 0.0
2017-Jul-15 10:58N 45°45' W 085°31'0 0.0
2017-Jul-15 00:00N 45°45' W 085°31'2 4.5
2017-Jul-14 23:30N 45°43' W 085°29'613.0
2017-Jul-14 23:00N 45°37' W 085°25'713.1
2017-Jul-14 22:30N 45°31' W 085°22'713.3
2017-Jul-14 22:00N 45°25' W 085°19'612.4
2017-Jul-14 21:30N 45°19' W 085°15'0 0.0
2017-Jul-14 20:34N 45°19' W 085°15'0 2.9
2017-Jul-14 20:29N 45°19' W 085°16'612.6
2017-Jul-14 20:00N 45°25' W 085°19'713.1
2017-Jul-14 19:31N 45°31' W 085°22'713.5
2017-Jul-14 19:00N 45°37' W 085°26'713.4
2017-Jul-14 18:30N 45°44' W 085°29'  
Track history (hours):
 
Tides and Currents Weather Stations Pressure Air Temp Water Temp Dewpoint Dewpoint Depression Visibility Wind Speed Wind Dir Waves Ship Positions

Beaver Islander

Owner: BEAVER ISLAND BOAT CO, CHARLEVOIX, MI. More information available from US FCC via Universal Licensing System and Coast Guard Vessel Documentation Center.

Last reported at 2017-Jul-23 23:54 UTC. Time now 2017-Jul-25 02:35 UTC.
Position N 45°45' W 085°31'.

Length 28 m; draft 3 m.

Type: Passenger vessel. MMSI: 366936060.

Date/timePositionNaut miles runAvg speedWind from/ knotsBaromVisibWave heightAir tempDewpointWater temp
2017-Jul-23 23:54N 45°45' W 085°31'2 5.5
2017-Jul-23 23:30N 45°43' W 085°29'713.0
2017-Jul-23 23:00N 45°37' W 085°25'713.2
2017-Jul-23 22:30N 45°31' W 085°22'613.0
2017-Jul-23 22:00N 45°25' W 085°19'6 4.7
2017-Jul-23 20:39N 45°19' W 085°15'1 5.3
2017-Jul-23 20:30N 45°20' W 085°16'613.0
2017-Jul-23 20:00N 45°26' W 085°20'613.0
2017-Jul-23 19:30N 45°32' W 085°23'713.0
2017-Jul-23 19:00N 45°38' W 085°26'612.8
2017-Jul-23 18:31N 45°44' W 085°29'2 3.0
2017-Jul-23 18:00N 45°45' W 085°31'2 4.7
2017-Jul-23 17:31N 45°43' W 085°29'612.9
2017-Jul-23 17:00N 45°37' W 085°25'612.9
2017-Jul-23 16:31N 45°31' W 085°22'613.0
2017-Jul-23 16:01N 45°25' W 085°19'6 4.8
2017-Jul-23 14:40N 45°19' W 085°15'1 5.0
2017-Jul-23 14:30N 45°20' W 085°16'713.1
2017-Jul-23 14:00N 45°26' W 085°20'613.0
2017-Jul-23 13:31N 45°32' W 085°24'612.8
2017-Jul-23 13:01N 45°38' W 085°26'612.9
2017-Jul-23 12:30N 45°44' W 085°29'2 1.9
2017-Jul-23 11:43N 45°45' W 085°31'0 0.0
2017-Jul-23 11:04N 45°45' W 085°31'0 0.0
2017-Jul-23 10:55N 45°45' W 085°31'0 0.0
2017-Jul-22 23:57N 45°45' W 085°31'2 5.3
2017-Jul-22 23:30N 45°43' W 085°29'713.1
2017-Jul-22 23:00N 45°37' W 085°25'713.0
2017-Jul-22 22:30N 45°31' W 085°22'713.1
2017-Jul-22 22:00N 45°25' W 085°19'6 4.6
2017-Jul-22 20:40N 45°19' W 085°15'1 3.7
2017-Jul-22 20:30N 45°19' W 085°16'713.1
2017-Jul-22 20:00N 45°26' W 085°19'713.2
2017-Jul-22 19:30N 45°32' W 085°23'713.3
2017-Jul-22 19:00N 45°38' W 085°26'712.9
2017-Jul-22 18:30N 45°44' W 085°30'1 2.5
2017-Jul-22 17:59N 45°45' W 085°31'3 5.7
2017-Jul-22 17:30N 45°43' W 085°29'713.0
2017-Jul-22 17:00N 45°37' W 085°25'612.8
2017-Jul-22 16:30N 45°31' W 085°22'613.0
2017-Jul-22 16:00N 45°25' W 085°19'611.8
2017-Jul-22 15:30N 45°19' W 085°15'0 0.0
2017-Jul-22 14:35N 45°19' W 085°15'711.5
2017-Jul-22 14:00N 45°25' W 085°19'713.1
2017-Jul-22 13:30N 45°31' W 085°22'713.2
2017-Jul-22 13:00N 45°38' W 085°26'713.0
2017-Jul-22 12:30N 45°44' W 085°29'2 3.7
2017-Jul-22 12:00N 45°45' W 085°31'0 0.0
2017-Jul-22 11:30N 45°45' W 085°31'0 0.0
2017-Jul-21 23:57N 45°45' W 085°31'2 5.3
2017-Jul-21 23:30N 45°43' W 085°29'713.2
2017-Jul-21 23:00N 45°37' W 085°25'713.1
2017-Jul-21 22:30N 45°31' W 085°22'713.1
2017-Jul-21 22:00N 45°25' W 085°19'6 4.1
2017-Jul-21 20:32N 45°19' W 085°15'0 4.5
2017-Jul-21 20:28N 45°19' W 085°16'612.7
2017-Jul-21 20:00N 45°25' W 085°19'713.4
2017-Jul-21 19:30N 45°31' W 085°21'713.4
2017-Jul-21 19:00N 45°37' W 085°25'713.2
2017-Jul-21 18:30N 45°43' W 085°29'2 4.1
2017-Jul-21 18:00N 45°45' W 085°31'3 5.3
2017-Jul-21 17:30N 45°43' W 085°28'612.9
2017-Jul-21 17:00N 45°37' W 085°25'612.8
2017-Jul-21 16:30N 45°31' W 085°22'612.9
2017-Jul-21 16:00N 45°25' W 085°19'6 4.3
2017-Jul-21 14:36N 45°19' W 085°15'0 3.2
2017-Jul-21 14:29N 45°19' W 085°16'613.0
2017-Jul-21 14:00N 45°25' W 085°19'713.2
2017-Jul-21 13:30N 45°31' W 085°23'713.2
2017-Jul-21 13:00N 45°38' W 085°26'613.0
2017-Jul-21 12:30N 45°44' W 085°29'2 3.4
2017-Jul-21 11:56N 45°45' W 085°31'0 0.0
2017-Jul-21 11:29N 45°45' W 085°31'0 0.0
2017-Jul-21 10:59N 45°45' W 085°31'0 0.0
2017-Jul-20 23:54N 45°45' W 085°31'3 6.6
2017-Jul-20 23:31N 45°43' W 085°29'713.1
2017-Jul-20 23:01N 45°37' W 085°25'712.9
2017-Jul-20 22:30N 45°31' W 085°22'612.9
2017-Jul-20 22:00N 45°25' W 085°19'6 4.2
2017-Jul-20 20:34N 45°19' W 085°15'0 2.7
2017-Jul-20 20:29N 45°19' W 085°16'613.0
2017-Jul-20 20:00N 45°25' W 085°19'713.5
2017-Jul-20 19:30N 45°31' W 085°22'713.5
2017-Jul-20 19:00N 45°38' W 085°26'713.3
2017-Jul-20 18:30N 45°44' W 085°29'2 3.2
2017-Jul-20 17:59N 45°45' W 085°31'0 0.0
2017-Jul-20 17:29N 45°45' W 085°31'0 0.0
2017-Jul-20 16:59N 45°45' W 085°31'0 0.0
2017-Jul-20 16:30N 45°45' W 085°31'  
2017-Jul-16 23:55N 45°45' W 085°31'2 5.1
2017-Jul-16 23:30N 45°43' W 085°29'613.0
2017-Jul-16 23:00N 45°37' W 085°26'713.1
2017-Jul-16 22:30N 45°31' W 085°22'713.2
2017-Jul-16 22:00N 45°25' W 085°19'6 4.4
2017-Jul-16 20:34N 45°19' W 085°15'0 2.1
2017-Jul-16 20:28N 45°19' W 085°16'612.8
2017-Jul-16 20:00N 45°25' W 085°19'713.2
2017-Jul-16 19:30N 45°31' W 085°22'713.4
2017-Jul-16 19:00N 45°37' W 085°26'713.4
2017-Jul-16 18:30N 45°43' W 085°29'2 3.8
2017-Jul-16 17:58N 45°45' W 085°31'3 5.9
2017-Jul-16 17:30N 45°43' W 085°29'713.0
2017-Jul-16 17:00N 45°37' W 085°25'713.0
2017-Jul-16 16:30N 45°31' W 085°22'713.1
2017-Jul-16 16:00N 45°25' W 085°19'611.1
2017-Jul-16 15:29N 45°19' W 085°15'0 0.0
2017-Jul-16 15:00N 45°19' W 085°15'0 0.5
2017-Jul-16 14:30N 45°19' W 085°16'612.8
2017-Jul-16 14:00N 45°25' W 085°19'713.2
2017-Jul-16 13:30N 45°31' W 085°22'713.3
2017-Jul-16 13:00N 45°37' W 085°26'713.3
2017-Jul-16 12:30N 45°44' W 085°29'2 3.5
2017-Jul-16 11:59N 45°45' W 085°31'0 0.0
2017-Jul-16 11:29N 45°45' W 085°31'0 0.0
2017-Jul-16 10:59N 45°45' W 085°31'0 0.0
2017-Jul-16 00:03N 45°45' W 085°31'0 0.0
2017-Jul-16 00:00N 45°45' W 085°31'2 4.4
2017-Jul-15 23:30N 45°43' W 085°29'713.1
2017-Jul-15 23:00N 45°37' W 085°25'713.1
2017-Jul-15 22:30N 45°31' W 085°22'713.1
2017-Jul-15 22:01N 45°25' W 085°19'612.3
2017-Jul-15 21:30N 45°19' W 085°15'0 0.0
2017-Jul-15 20:36N 45°19' W 085°15'0 2.4
2017-Jul-15 20:30N 45°19' W 085°16'612.7
2017-Jul-15 20:01N 45°25' W 085°19'713.0
2017-Jul-15 19:30N 45°31' W 085°22'613.0
2017-Jul-15 19:01N 45°37' W 085°26'713.1
2017-Jul-15 18:31N 45°43' W 085°29'2 4.2
2017-Jul-15 18:01N 45°45' W 085°31'2 4.8
2017-Jul-15 17:31N 45°43' W 085°29'713.1
2017-Jul-15 17:01N 45°37' W 085°25'713.2
2017-Jul-15 16:31N 45°31' W 085°22'713.2
2017-Jul-15 16:01N 45°25' W 085°19'611.7
2017-Jul-15 15:30N 45°19' W 085°15'0 0.0
2017-Jul-15 14:37N 45°19' W 085°15'711.4
2017-Jul-15 14:01N 45°25' W 085°19'613.0
2017-Jul-15 13:31N 45°31' W 085°22'713.0
2017-Jul-15 13:01N 45°38' W 085°26'713.1
2017-Jul-15 12:30N 45°44' W 085°29'2 3.3
2017-Jul-15 11:58N 45°45' W 085°31'0 0.0
2017-Jul-15 11:28N 45°45' W 085°31'0 0.0
2017-Jul-15 10:58N 45°45' W 085°31'0 0.0
2017-Jul-15 00:00N 45°45' W 085°31'2 4.5
2017-Jul-14 23:30N 45°43' W 085°29'613.0
2017-Jul-14 23:00N 45°37' W 085°25'713.1
2017-Jul-14 22:30N 45°31' W 085°22'713.3
2017-Jul-14 22:00N 45°25' W 085°19'612.4
2017-Jul-14 21:30N 45°19' W 085°15'0 0.0
2017-Jul-14 20:34N 45°19' W 085°15'0 2.9
2017-Jul-14 20:29N 45°19' W 085°16'612.6
2017-Jul-14 20:00N 45°25' W 085°19'713.1
2017-Jul-14 19:31N 45°31' W 085°22'713.5
2017-Jul-14 19:00N 45°37' W 085°26'713.4
2017-Jul-14 18:30N 45°44' W 085°29'  

Dump ship's entire track history